Time;durP1;ratioP1;P1;durP2;ratioP2;P2;SDS_P1;SDS_P2;PMS_P1;PMS_P2;Temp;Humidity;BMP_temperature;BMP_pressure;BME280_temperature;BME280_humidity;BME280_pressure;Samples;Min_cycle;Max_cycle;Signal;HPM_P1;HPM_P2
2023/06/07 00:00:17;;;;;;;7.63;3.40;;;;;;;18.96;51.05;101173.63;4991882;28;20093;-73
2023/06/07 00:02:47;;;;;;;6.15;3.13;;;;;;;18.94;50.80;101170.22;5001195;28;20046;-71
2023/06/07 00:05:21;;;;;;;7.68;3.78;;;;;;;18.92;50.63;101180.19;4993316;28;20135;-71
2023/06/07 00:07:51;;;;;;;;;;;;;;;18.90;50.48;101182.13;4971737;28;20050;-68
2023/06/07 00:10:20;;;;;;;7.07;3.67;;;;;;;18.89;50.52;101175.09;4971143;28;19941;-78
2023/06/07 00:12:51;;;;;;;6.72;3.95;;;;;;;18.87;50.40;101177.91;4963945;28;20057;-72
2023/06/07 00:15:21;;;;;;;8.45;3.50;;;;;;;18.85;50.16;101177.19;4963032;28;20138;-70
2023/06/07 00:17:48;;;;;;;5.97;3.67;;;;;;;18.82;50.22;101185.47;4974602;28;20089;-73
2023/06/07 00:20:23;;;;;;;5.82;3.60;;;;;;;18.80;50.22;101181.22;4964767;28;20062;-73
2023/06/07 00:22:55;;;;;;;7.47;3.60;;;;;;;18.78;50.03;101178.69;4970764;28;20143;-72
2023/06/07 00:25:30;;;;;;;5.93;3.50;;;;;;;18.76;50.49;101179.78;4996019;28;20073;-74
2023/06/07 00:28:04;;;;;;;9.63;3.22;;;;;;;18.74;50.33;101179.09;4995763;28;20101;-72
2023/06/07 00:30:32;;;;;;;9.45;3.15;;;;;;;18.71;50.32;101173.03;4967796;28;20050;-74
2023/06/07 00:33:00;;;;;;;8.07;3.65;;;;;;;18.69;50.46;101177.66;4985435;28;20058;-72
2023/06/07 00:35:28;;;;;;;5.15;2.80;;;;;;;18.67;50.54;101168.03;4984483;28;20366;-70
2023/06/07 00:37:56;;;;;;;5.68;2.90;;;;;;;18.65;50.56;101170.84;5015515;28;20034;-75
2023/06/07 00:40:27;;;;;;;4.72;3.40;;;;;;;18.63;50.71;101167.44;4966604;28;20128;-73
2023/06/07 00:42:57;;;;;;;6.30;3.63;;;;;;;18.61;50.56;101169.41;4980932;28;20080;-71
2023/06/07 00:45:27;;;;;;;4.63;2.60;;;;;;;18.59;50.75;101166.00;4954748;28;20053;-73
2023/06/07 00:47:59;;;;;;;5.28;2.88;;;;;;;18.57;50.70;101173.31;4951501;28;20042;-71
2023/06/07 00:50:27;;;;;;;5.72;3.20;;;;;;;18.54;50.70;101168.22;4983069;28;20069;-72
2023/06/07 00:52:57;;;;;;;4.10;2.88;;;;;;;18.54;50.78;101176.22;4982386;28;20077;-70
2023/06/07 00:55:26;;;;;;;6.90;3.17;;;;;;;18.51;50.82;101180.97;4960450;28;20081;-75
2023/06/07 00:57:55;;;;;;;4.55;3.15;;;;;;;18.48;50.94;101184.75;4963332;28;20109;-68
2023/06/07 01:00:26;;;;;;;5.82;2.95;;;;;;;18.45;51.00;101177.84;4979109;28;20453;-70
2023/06/07 01:02:56;;;;;;;8.98;3.75;;;;;;;18.43;51.12;101178.97;4996779;28;20456;-70
2023/06/07 01:05:27;;;;;;;7.95;3.35;;;;;;;18.42;51.06;101185.28;4992320;28;20115;-68
2023/06/07 01:07:54;;;;;;;6.80;3.00;;;;;;;18.39;51.39;101169.53;4972949;28;20116;-72
2023/06/07 01:10:26;;;;;;;6.90;3.38;;;;;;;18.37;51.23;101179.44;4985546;28;20116;-73
2023/06/07 01:12:56;;;;;;;6.53;3.20;;;;;;;18.34;51.29;101177.91;4987004;28;20159;-74
2023/06/07 01:15:30;;;;;;;6.47;3.60;;;;;;;18.32;51.31;101174.50;4962981;28;20129;-68
2023/06/07 01:18:01;;;;;;;5.22;3.05;;;;;;;18.30;51.56;101173.78;4987960;28;20132;-73
2023/06/07 01:20:30;;;;;;;6.65;2.92;;;;;;;18.30;51.39;101178.28;4973585;28;20046;-73
2023/06/07 01:23:04;;;;;;;6.43;3.17;;;;;;;18.27;51.49;101175.84;4952267;28;20107;-72
2023/06/07 01:25:32;;;;;;;5.40;3.67;;;;;;;18.25;51.40;101177.81;4955509;28;20148;-72
2023/06/07 01:28:00;;;;;;;7.25;3.80;;;;;;;18.23;51.61;101169.94;4982247;28;20185;-71
2023/06/07 01:30:32;;;;;;;6.10;3.08;;;;;;;18.21;51.58;101164.72;4973374;28;20099;-73
2023/06/07 01:33:03;;;;;;;5.78;3.67;;;;;;;18.22;51.44;101163.75;4958277;28;20069;-74
2023/06/07 01:35:32;;;;;;;5.15;3.53;;;;;;;18.20;51.41;101168.38;4965103;28;20058;-74
2023/06/07 01:38:05;;;;;;;6.13;3.17;;;;;;;18.20;51.50;101165.72;4990221;28;20057;-68
2023/06/07 01:40:34;;;;;;;6.05;3.33;;;;;;;18.19;51.53;101163.16;4953720;28;20158;-73
2023/06/07 01:43:02;;;;;;;6.00;3.38;;;;;;;18.18;51.53;101164.97;4970299;28;20141;-74
2023/06/07 01:49:03;;;;;;;10.27;3.25;;;;;;;18.12;51.30;101164.66;4969951;28;20140;-71
2023/06/07 01:51:30;;;;;;;5.35;3.25;;;;;;;18.11;51.23;101160.31;4944380;28;20156;-70
2023/06/07 01:54:00;;;;;;;6.07;3.15;;;;;;;18.10;51.61;101162.13;4967401;28;20080;-73
2023/06/07 01:56:40;;;;;;;4.65;2.70;;;;;;;18.06;51.81;101155.34;4969778;28;20113;-74
2023/06/07 01:59:36;;;;;;;5.50;3.40;;;;;;;18.05;51.56;101156.28;4968489;28;20558;-69
2023/06/07 02:02:21;;;;;;;8.07;3.42;;;;;;;18.02;51.38;101145.91;4982638;28;20124;-70
2023/06/07 02:04:55;;;;;;;5.78;3.28;;;;;;;18.03;51.60;101152.09;4972072;28;20145;-74
2023/06/07 02:07:24;;;;;;;4.07;2.90;;;;;;;18.01;51.54;101152.19;4980440;28;20066;-73
2023/06/07 02:09:52;;;;;;;4.72;3.00;;;;;;;18.02;51.61;101156.56;4951638;28;20050;-74
2023/06/07 02:12:21;;;;;;;5.75;3.00;;;;;;;18.00;51.60;101152.31;4969053;28;20090;-72
2023/06/07 02:14:53;;;;;;;4.00;3.33;;;;;;;18.00;51.36;101152.31;4987280;28;20058;-68
2023/06/07 02:20:43;;;;;;;;;;;;;;;17.96;51.02;101149.06;4980907;28;20075;-70
2023/06/07 02:23:11;;;;;;;5.47;2.83;;;;;;;17.93;51.06;101146.66;4952943;28;19965;-71
2023/06/07 02:25:38;;;;;;;5.05;3.10;;;;;;;17.91;51.13;101149.44;4982996;28;20717;-68
2023/06/07 02:28:06;;;;;;;7.20;3.20;;;;;;;17.90;51.21;101142.41;4953659;28;20062;-70
2023/06/07 02:30:34;;;;;;;4.35;3.20;;;;;;;17.87;51.18;101144.47;4957617;28;20090;-74
2023/06/07 02:33:01;;;;;;;5.88;2.67;;;;;;;17.85;51.12;101152.59;4958589;28;20161;-72
2023/06/07 02:35:29;;;;;;;5.50;3.28;;;;;;;17.83;51.38;101148.38;4991652;28;20055;-70
2023/06/07 02:37:56;;;;;;;6.70;3.25;;;;;;;17.83;51.14;101145.69;4990851;28;20105;-71
2023/06/07 02:40:27;;;;;;;4.10;2.95;;;;;;;17.83;51.11;101148.38;4968636;28;20117;-71
2023/06/07 02:42:56;;;;;;;5.85;3.25;;;;;;;17.82;51.21;101149.34;4971561;28;20090;-73
2023/06/07 02:45:24;;;;;;;6.88;3.40;;;;;;;17.79;51.09;101141.63;4989587;28;20077;-71
2023/06/07 02:47:57;;;;;;;6.93;2.83;;;;;;;17.80;51.09;101143.31;4972947;28;20142;-68
2023/06/07 02:50:30;;;;;;;3.88;3.28;;;;;;;17.78;50.98;101147.91;4967390;28;20065;-71
2023/06/07 02:53:01;;;;;;;4.32;3.08;;;;;;;17.77;50.87;101146.22;4960077;28;20516;-66
2023/06/07 02:55:29;;;;;;;6.10;2.90;;;;;;;17.76;50.75;101148.03;4955575;28;20054;-71
2023/06/07 02:58:00;;;;;;;5.68;3.13;;;;;;;17.75;50.93;101145.50;4985343;28;20043;-72
2023/06/07 03:00:28;;;;;;;4.47;2.70;;;;;;;17.75;50.81;101145.50;4974291;28;20085;-71
2023/06/07 03:02:57;;;;;;;4.57;2.92;;;;;;;17.75;50.91;101145.50;4956240;28;20478;-71
2023/06/07 03:05:33;;;;;;;4.45;3.30;;;;;;;17.75;50.70;101146.34;4989268;28;20050;-69
2023/06/07 03:08:01;;;;;;;4.65;2.85;;;;;;;17.75;50.76;101142.84;4974358;28;20056;-73
2023/06/07 03:10:34;;;;;;;4.47;3.22;;;;;;;17.72;50.95;101144.72;4974944;28;20054;-73
2023/06/07 03:13:05;;;;;;;3.58;2.58;;;;;;;17.71;51.06;101139.53;4992659;28;20034;-72
2023/06/07 03:15:35;;;;;;;7.40;2.72;;;;;;;17.69;50.92;101147.63;4997299;28;20062;-72
2023/06/07 03:18:04;;;;;;;4.78;3.35;;;;;;;17.70;50.65;101146.69;4970060;28;20056;-71
2023/06/07 03:20:34;;;;;;;8.00;3.55;;;;;;;17.70;50.81;101146.69;4971261;28;20067;-75
2023/06/07 03:23:06;;;;;;;7.93;3.30;;;;;;;17.72;50.53;101149.22;4984970;28;20073;-71
2023/06/07 03:25:35;;;;;;;6.80;4.00;;;;;;;17.74;50.84;101149.09;5000387;28;20050;-73
2023/06/07 03:28:03;;;;;;;5.05;3.30;;;;;;;17.75;50.67;101148.16;4982374;28;20073;-75
2023/06/07 03:30:31;;;;;;;7.63;3.33;;;;;;;17.76;50.66;101149.84;4950624;28;20908;-73
2023/06/07 03:33:00;;;;;;;5.18;3.22;;;;;;;17.80;50.54;101156.63;4968301;28;20501;-65
2023/06/07 03:35:28;;;;;;;3.65;3.00;;;;;;;17.80;50.55;101153.97;4970700;28;20629;-72
2023/06/07 03:38:01;;;;;;;4.72;2.70;;;;;;;17.84;50.64;101158.06;4973063;28;20161;-72
2023/06/07 03:40:28;;;;;;;4.75;3.15;;;;;;;17.86;50.31;101164.94;4998164;28;20054;-74
2023/06/07 03:42:56;;;;;;;6.60;3.05;;;;;;;17.90;50.11;101163.72;4980666;28;20548;-71
2023/06/07 03:45:26;;;;;;;8.93;2.95;;;;;;;17.93;50.20;101160.00;4975549;28;20397;-69
2023/06/07 03:47:53;;;;;;;7.93;2.65;;;;;;;17.94;50.24;101162.50;4964305;28;20106;-72
2023/06/07 03:50:21;;;;;;;6.65;3.70;;;;;;;17.95;50.11;101164.19;4985520;28;20051;-73
2023/06/07 03:52:52;;;;;;;5.63;2.80;;;;;;;17.98;49.85;101155.13;4967928;28;20515;-70
2023/06/07 03:55:21;;;;;;;9.48;3.65;;;;;;;18.01;49.77;101159.34;4983473;28;20129;-66
2023/06/07 03:57:50;;;;;;;7.15;3.13;;;;;;;18.04;49.73;101157.28;4980110;28;20126;-69
2023/06/07 04:00:18;;;;;;;4.60;2.67;;;;;;;18.08;49.75;101163.22;4974435;28;20144;-71
2023/06/07 04:02:49;;;;;;;6.78;3.10;;;;;;;18.12;49.48;101165.50;4970632;28;20084;-74
2023/06/07 04:05:19;;;;;;;5.70;2.70;;;;;;;18.14;49.42;101163.53;4967987;28;20085;-73
2023/06/07 04:07:49;;;;;;;5.75;3.42;;;;;;;18.20;49.20;101159.53;4985149;28;20057;-69
2023/06/07 04:10:16;;;;;;;8.93;3.65;;;;;;;18.25;49.07;101162.66;4956491;28;20093;-70
2023/06/07 04:12:47;;;;;;;7.53;3.60;;;;;;;18.28;48.77;101165.09;4979022;28;20080;-71
2023/06/07 04:15:15;;;;;;;5.20;3.30;;;;;;;18.33;48.86;101154.06;4937969;28;20051;-70
2023/06/07 04:17:43;;;;;;;5.47;3.22;;;;;;;18.39;48.70;101159.69;4953410;28;20126;-73
2023/06/07 04:20:14;;;;;;;5.72;3.90;;;;;;;18.43;48.56;101149.63;4969195;28;20098;-73
2023/06/07 04:22:43;;;;;;;8.90;4.53;;;;;;;18.48;48.33;101160.75;4970310;28;20034;-77
2023/06/07 04:25:16;;;;;;;9.00;3.92;;;;;;;18.52;48.20;101158.69;4984137;28;20034;-67
2023/06/07 04:27:49;;;;;;;10.35;4.70;;;;;;;18.57;48.25;101157.31;4979067;28;20030;-67
2023/06/07 04:30:20;;;;;;;7.20;4.53;;;;;;;18.61;48.01;101158.75;4953141;28;20050;-73
2023/06/07 04:32:55;;;;;;;9.35;4.25;;;;;;;18.65;48.04;101160.19;4963457;28;20070;-68
2023/06/07 04:35:23;;;;;;;8.27;4.15;;;;;;;18.68;47.70;101162.56;4952617;28;20090;-72
2023/06/07 04:37:52;;;;;;;9.85;4.60;;;;;;;18.75;47.70;101159.44;4967390;28;20043;-74
2023/06/07 04:40:23;;;;;;;11.40;4.95;;;;;;;18.79;47.41;101159.06;4987626;28;20700;-72
2023/06/07 04:43:04;;;;;;;11.00;4.45;;;;;;;18.85;47.12;101161.19;4964442;28;20042;-73
2023/06/07 04:45:36;;;;;;;7.35;4.45;;;;;;;18.92;47.25;101164.19;4979410;28;20136;-69
2023/06/07 04:48:11;;;;;;;6.63;4.40;;;;;;;18.94;46.95;101156.88;4983252;28;20050;-71
2023/06/07 04:50:41;;;;;;;7.15;4.03;;;;;;;18.97;47.06;101164.63;4986994;28;20089;-69
2023/06/07 04:53:10;;;;;;;12.10;4.22;;;;;;;19.04;46.95;101154.25;4970877;28;20072;-75
2023/06/07 04:55:38;;;;;;;11.40;3.97;;;;;;;19.09;47.00;101160.06;4958781;28;20555;-73
2023/06/07 04:58:07;;;;;;;16.27;4.85;;;;;;;19.13;46.70;101165.00;4979925;28;20077;-73
2023/06/07 05:00:35;;;;;;;8.32;3.53;;;;;;;19.22;46.57;101164.19;4979512;28;20136;-75
2023/06/07 05:03:08;;;;;;;8.02;3.70;;;;;;;19.34;46.54;101158.78;4962923;28;20069;-69
2023/06/07 05:05:36;;;;;;;7.75;3.78;;;;;;;19.44;46.46;101165.84;4951418;28;20086;-73
2023/06/07 05:08:05;;;;;;;7.25;3.40;;;;;;;19.52;46.26;101173.19;4960052;28;20064;-74
2023/06/07 05:10:37;;;;;;;8.70;3.78;;;;;;;19.57;45.86;101168.28;4972983;28;20038;-71
2023/06/07 05:13:05;;;;;;;7.10;3.90;;;;;;;19.60;45.98;101162.72;4986509;28;20497;-74
2023/06/07 05:15:36;;;;;;;10.23;3.97;;;;;;;19.67;45.75;101168.34;4995820;28;20077;-78
2023/06/07 05:18:09;;;;;;;8.90;3.80;;;;;;;19.73;45.47;101171.31;4968389;28;20426;-75
2023/06/07 05:20:39;;;;;;;7.97;3.72;;;;;;;19.80;44.96;101173.44;4980243;28;20137;-73
2023/06/07 05:23:15;;;;;;;5.05;3.67;;;;;;;19.86;44.93;101175.59;4962124;28;20059;-74
2023/06/07 05:25:44;;;;;;;7.88;3.53;;;;;;;19.91;44.71;101170.66;4990129;28;20050;-72
2023/06/07 05:28:20;;;;;;;7.82;3.58;;;;;;;19.96;44.64;101168.41;4956031;28;20051;-73
2023/06/07 05:30:51;;;;;;;6.45;3.40;;;;;;;20.03;44.86;101174.03;4978147;28;20070;-69
2023/06/07 05:33:19;;;;;;;7.07;3.83;;;;;;;20.07;44.56;101178.97;4976502;28;20386;-75
2023/06/07 05:35:46;;;;;;;7.07;3.60;;;;;;;20.13;44.04;101181.13;4959328;28;20434;-74
2023/06/07 05:38:16;;;;;;;6.45;3.35;;;;;;;20.20;43.90;101176.88;4966915;28;20038;-71
2023/06/07 05:40:44;;;;;;;6.50;3.38;;;;;;;20.27;43.45;101179.03;4970738;28;20052;-70
2023/06/07 05:43:11;;;;;;;7.07;3.58;;;;;;;20.33;43.57;101179.28;4964178;28;20467;-72
2023/06/07 05:45:41;;;;;;;9.88;3.58;;;;;;;20.38;43.19;101179.72;4955948;28;20096;-72
2023/06/07 05:48:12;;;;;;;9.40;3.30;;;;;;;20.45;43.13;101174.66;4962475;28;20141;-73
2023/06/07 05:50:39;;;;;;;6.25;3.33;;;;;;;20.57;42.86;101181.56;4951135;28;20165;-72
2023/06/07 05:53:10;;;;;;;10.75;4.15;;;;;;;20.62;42.76;101179.31;4945761;28;20568;-71
2023/06/07 05:55:39;;;;;;;9.60;3.75;;;;;;;20.63;42.62;101177.50;4996616;28;20177;-70
2023/06/07 05:58:07;;;;;;;5.32;2.95;;;;;;;20.64;42.26;101176.50;4985006;28;20129;-71
2023/06/07 06:00:35;;;;;;;9.02;3.00;;;;;;;20.60;42.39;101177.78;4951365;28;20209;-74
2023/06/07 06:03:04;;;;;;;10.05;3.08;;;;;;;20.56;42.10;101177.22;4954476;28;20114;-73
2023/06/07 06:05:31;;;;;;;7.93;3.47;;;;;;;20.54;42.15;101178.34;4988258;28;20050;-72
2023/06/07 06:07:59;;;;;;;7.13;3.35;;;;;;;20.52;42.02;101182.97;4974257;28;20168;-71
2023/06/07 06:10:28;;;;;;;7.43;3.50;;;;;;;20.52;42.19;101185.66;4970701;28;20058;-70
2023/06/07 06:12:57;;;;;;;5.32;2.80;;;;;;;20.47;42.15;101189.59;4985515;28;20057;-75
2023/06/07 06:15:27;;;;;;;5.90;3.42;;;;;;;20.44;42.21;101181.84;4954580;28;20066;-72
2023/06/07 06:17:54;;;;;;;8.68;3.05;;;;;;;20.42;42.22;101182.97;4972200;28;20479;-73
2023/06/07 06:20:23;;;;;;;8.18;2.88;;;;;;;20.43;42.32;101187.31;4965558;28;20062;-71
2023/06/07 06:22:50;;;;;;;8.02;3.42;;;;;;;20.48;42.07;101187.75;4951202;28;20108;-74
2023/06/07 06:25:18;;;;;;;7.15;3.45;;;;;;;20.51;41.99;101194.69;4983479;28;20038;-77
2023/06/07 06:27:47;;;;;;;7.30;3.10;;;;;;;20.56;41.64;101189.75;4957352;28;20074;-73
2023/06/07 06:30:17;;;;;;;7.88;3.17;;;;;;;20.62;41.70;101197.19;4969873;28;20114;-72
2023/06/07 06:32:44;;;;;;;5.90;3.35;;;;;;;20.67;41.44;101193.13;4986371;28;20461;-74
2023/06/07 06:35:12;;;;;;;8.20;3.15;;;;;;;20.76;41.54;101201.25;4986888;28;20057;-75
2023/06/07 06:37:41;;;;;;;8.63;3.10;;;;;;;20.86;41.73;101202.13;4969218;28;20174;-71
2023/06/07 06:40:12;;;;;;;7.65;2.95;;;;;;;20.93;41.29;101198.69;4990024;28;20134;-72
2023/06/07 06:42:42;;;;;;;7.35;3.45;;;;;;;21.03;41.06;101201.38;4974291;28;20095;-73
2023/06/07 06:45:10;;;;;;;7.78;2.92;;;;;;;21.13;40.67;101202.19;4963522;28;20066;-76
2023/06/07 06:47:41;;;;;;;10.50;3.13;;;;;;;21.27;40.56;101198.22;4985729;28;20140;-75
2023/06/07 06:50:14;;;;;;;6.82;2.97;;;;;;;21.41;40.45;101199.59;4966354;28;20034;-75
2023/06/07 06:52:59;;;;;;;9.98;2.97;;;;;;;21.58;39.57;101206.88;4971189;28;20050;-75
2023/06/07 06:55:29;;;;;;;6.35;2.83;;;;;;;21.76;39.44;101211.44;4958748;28;20046;-71
2023/06/07 06:57:57;;;;;;;4.18;2.70;;;;;;;21.95;39.32;101214.84;4971668;28;20133;-74
2023/06/07 07:00:25;;;;;;;7.28;3.45;;;;;;;22.10;38.94;101201.78;4980293;28;20137;-74
2023/06/07 07:02:54;;;;;;;6.57;3.28;;;;;;;22.27;38.71;101207.34;5003463;28;20094;-72
2023/06/07 07:05:25;;;;;;;8.55;3.15;;;;;;;22.36;37.89;101201.91;4976236;28;20046;-69
2023/06/07 07:08:02;;;;;;;8.07;2.80;;;;;;;22.46;37.54;101207.19;4994750;28;20050;-74
2023/06/07 07:10:36;;;;;;;5.80;3.25;;;;;;;22.55;36.99;101200.91;4963043;28;20058;-73
2023/06/07 07:13:06;;;;;;;6.45;2.70;;;;;;;22.60;37.28;101203.13;4968095;28;20054;-74
2023/06/07 07:15:37;;;;;;;4.93;3.05;;;;;;;22.70;36.97;101198.53;4997429;28;20197;-73
2023/06/07 07:18:07;;;;;;;9.48;2.95;;;;;;;22.81;36.97;101195.59;4951865;28;20050;-69
2023/06/07 07:20:38;;;;;;;5.13;2.35;;;;;;;22.85;37.10;101201.50;4967970;28;20124;-71
2023/06/07 07:23:05;;;;;;;6.45;3.05;;;;;;;22.92;36.52;101200.75;4965612;28;20058;-74
2023/06/07 07:25:37;;;;;;;9.10;2.67;;;;;;;23.00;36.37;101195.41;4968276;28;20054;-74
2023/06/07 07:28:04;;;;;;;5.90;2.75;;;;;;;23.22;36.46;101198.59;4984064;28;20054;-70
2023/06/07 07:30:33;;;;;;;14.40;3.47;;;;;;;23.44;36.48;101200.72;4999860;28;20116;-75
2023/06/07 07:33:05;;;;;;;8.80;3.53;;;;;;;23.66;36.42;101209.28;4966501;28;20125;-73
2023/06/07 07:35:32;;;;;;;4.75;3.05;;;;;;;23.82;36.18;101206.66;4982454;28;20057;-74
2023/06/07 07:38:08;;;;;;;7.07;3.17;;;;;;;23.88;35.85;101206.00;4986888;28;20058;-72
2023/06/07 07:40:36;;;;;;;8.48;2.75;;;;;;;23.91;35.55;101205.69;4957392;28;20165;-71
2023/06/07 07:43:04;;;;;;;9.55;3.30;;;;;;;23.90;35.54;101203.13;5000658;28;20054;-69
2023/06/07 07:45:39;;;;;;;7.85;2.83;;;;;;;23.96;35.39;101202.50;4978159;28;20056;-72
2023/06/07 07:48:07;;;;;;;10.70;2.92;;;;;;;24.14;35.22;101203.22;4984332;28;20142;-73
2023/06/07 07:50:38;;;;;;;7.72;3.22;;;;;;;24.40;35.04;101205.78;4991400;28;20129;-69
2023/06/07 07:53:08;;;;;;;6.80;3.00;;;;;;;24.69;34.42;101215.25;4988118;28;20082;-70
2023/06/07 07:55:38;;;;;;;6.05;2.50;;;;;;;24.81;34.12;101205.84;4968649;28;20169;-72
2023/06/07 07:58:05;;;;;;;3.83;2.92;;;;;;;24.91;33.94;101209.19;4982502;28;20055;-73
2023/06/07 08:00:35;;;;;;;10.10;3.38;;;;;;;24.98;33.60;101201.25;4966122;28;20815;-74
2023/06/07 08:03:03;;;;;;;9.80;3.80;;;;;;;25.08;33.94;101203.78;4983678;28;20129;-73
2023/06/07 08:05:33;;;;;;;10.93;2.97;;;;;;;25.11;33.89;101204.28;4955648;28;20133;-73
2023/06/07 08:08:16;;;;;;;5.97;3.17;;;;;;;25.09;33.71;101210.88;4979546;28;20450;-76
2023/06/07 08:10:46;;;;;;;7.28;2.97;;;;;;;25.05;33.49;101201.44;4968065;28;20437;-72
2023/06/07 08:13:14;;;;;;;5.00;3.30;;;;;;;25.07;33.72;101208.31;4983774;28;20058;-77
2023/06/07 08:15:43;;;;;;;5.80;2.75;;;;;;;25.04;33.43;101205.97;4971904;28;20050;-74
2023/06/07 08:18:11;;;;;;;6.32;3.00;;;;;;;25.03;33.47;101196.19;4951368;28;20488;-72
2023/06/07 08:20:39;;;;;;;7.80;3.25;;;;;;;25.02;33.83;101200.75;4950958;28;20046;-74
2023/06/07 08:23:17;;;;;;;4.88;3.20;;;;;;;25.02;33.64;101199.91;4989075;28;20150;-73
2023/06/07 08:25:44;;;;;;;6.95;3.10;;;;;;;25.00;33.83;101192.00;4970168;28;20112;-73
2023/06/07 08:28:11;;;;;;;6.93;3.38;;;;;;;25.00;33.84;101200.09;4952506;28;20969;-72
2023/06/07 08:30:42;;;;;;;6.18;3.30;;;;;;;25.04;34.05;101202.41;4956128;28;20122;-74
2023/06/07 08:33:13;;;;;;;5.82;3.10;;;;;;;25.02;34.17;101192.66;4967287;28;20054;-72
2023/06/07 08:35:49;;;;;;;9.88;3.50;;;;;;;25.10;34.11;101191.84;4974859;28;20039;-73
2023/06/07 08:38:17;;;;;;;5.07;3.25;;;;;;;25.24;33.83;101198.38;4987400;28;20346;-73
2023/06/07 08:40:48;;;;;;;5.15;3.13;;;;;;;25.49;33.17;101194.59;4991179;28;20050;-74
2023/06/07 08:43:17;;;;;;;9.88;3.38;;;;;;;25.84;32.97;101197.84;4968051;28;20177;-74
2023/06/07 08:45:49;;;;;;;6.78;3.50;;;;;;;26.23;32.57;101189.69;4956147;28;20386;-70
2023/06/07 08:48:18;;;;;;;8.88;2.95;;;;;;;26.53;31.60;101189.84;4971612;28;20146;-69
2023/06/07 08:50:46;;;;;;;8.05;3.55;;;;;;;26.68;31.02;101185.31;4957080;28;20505;-73
2023/06/07 08:53:15;;;;;;;7.15;2.80;;;;;;;26.76;30.38;101196.06;4974535;28;20082;-73
2023/06/07 08:55:44;;;;;;;6.82;3.38;;;;;;;26.92;30.09;101188.81;4958378;28;20046;-72
2023/06/07 08:58:11;;;;;;;16.60;3.60;;;;;;;26.93;29.43;101194.06;4984214;28;20097;-74
2023/06/07 09:00:39;;;;;;;6.30;3.15;;;;;;;27.10;29.70;101194.75;4970760;28;20051;-76
2023/06/07 09:03:08;;;;;;;8.45;2.60;;;;;;;27.29;29.50;101197.91;4970423;28;20149;-75
2023/06/07 09:05:35;;;;;;;7.88;3.40;;;;;;;27.44;28.82;101193.38;4962843;28;20054;-75
2023/06/07 09:08:03;;;;;;;7.70;3.38;;;;;;;27.59;27.98;101194.19;4988344;28;20132;-74
2023/06/07 09:10:31;;;;;;;5.60;3.10;;;;;;;27.69;28.15;101194.75;4985809;28;20197;-73
2023/06/07 09:12:59;;;;;;;6.25;3.20;;;;;;;27.89;28.47;101194.19;4988384;28;20077;-72
2023/06/07 09:15:27;;;;;;;5.28;2.75;;;;;;;28.06;28.50;101187.53;4964955;28;20145;-74
2023/06/07 09:17:59;;;;;;;5.78;3.08;;;;;;;28.24;28.72;101196.03;4967962;28;20073;-73
2023/06/07 09:20:33;;;;;;;8.90;3.13;;;;;;;28.23;28.21;101188.97;4973071;28;20046;-72
2023/06/07 09:23:03;;;;;;;7.20;2.92;;;;;;;28.39;27.55;101197.88;4978378;28;20056;-73
2023/06/07 09:25:32;;;;;;;8.07;3.25;;;;;;;28.40;27.88;101194.13;4987932;28;20093;-73
2023/06/07 09:28:02;;;;;;;5.97;2.65;;;;;;;28.48;27.85;101188.59;4971446;28;20133;-73
2023/06/07 09:30:31;;;;;;;4.22;2.75;;;;;;;28.46;27.60;101194.22;4968119;28;20494;-72
2023/06/07 09:32:59;;;;;;;6.68;2.92;;;;;;;28.57;28.07;101187.41;4970247;28;20042;-73
2023/06/07 09:35:27;;;;;;;10.38;2.95;;;;;;;28.51;27.76;101188.22;4982543;28;20083;-73
2023/06/07 09:37:55;;;;;;;7.93;3.10;;;;;;;28.31;28.07;101187.97;4980258;28;20846;-74
2023/06/07 09:40:23;;;;;;;5.95;2.45;;;;;;;28.20;27.93;101180.38;4948537;28;20157;-74
2023/06/07 09:43:02;;;;;;;8.65;2.70;;;;;;;28.26;28.24;101176.88;4992266;28;20136;-74
2023/06/07 09:45:31;;;;;;;4.32;3.03;;;;;;;28.31;28.09;101179.00;4972241;28;20111;-71
2023/06/07 09:48:09;;;;;;;5.00;3.17;;;;;;;28.31;28.44;101179.84;4964049;28;20074;-73
2023/06/07 09:50:37;;;;;;;9.40;2.50;;;;;;;28.44;28.34;101173.75;4989014;28;20074;-74
2023/06/07 09:53:05;;;;;;;6.07;3.08;;;;;;;28.35;28.17;101166.81;4982871;28;20145;-72
2023/06/07 09:55:32;;;;;;;12.68;3.20;;;;;;;28.46;27.89;101172.53;4970966;28;20550;-74
2023/06/07 09:58:02;;;;;;;5.70;2.88;;;;;;;28.68;28.20;101173.34;4957830;28;20141;-72
2023/06/07 10:00:41;;;;;;;7.10;3.30;;;;;;;28.80;28.11;101165.50;4966231;28;20133;-74
2023/06/07 10:03:09;;;;;;;10.52;3.65;;;;;;;28.71;28.05;101175.66;4971436;28;20121;-75
2023/06/07 10:05:42;;;;;;;5.70;2.88;;;;;;;28.57;28.07;101176.59;4969228;28;20129;-73
2023/06/07 10:08:10;;;;;;;7.00;2.72;;;;;;;28.45;28.00;101167.31;4985499;28;20050;-74
2023/06/07 10:10:40;;;;;;;12.13;3.03;;;;;;;28.24;28.02;101168.13;4981940;28;20141;-75
2023/06/07 10:13:13;;;;;;;6.78;3.13;;;;;;;28.09;28.61;101170.88;4988720;28;20157;-72
2023/06/07 10:15:50;;;;;;;5.93;2.83;;;;;;;28.12;28.57;101170.50;4972639;28;20042;-75
2023/06/07 10:18:21;;;;;;;6.53;2.90;;;;;;;28.06;29.00;101167.75;4986133;28;20473;-74
2023/06/07 10:20:57;;;;;;;11.43;3.55;;;;;;;28.25;28.80;101162.50;4982958;28;20145;-73
2023/06/07 10:23:51;;;;;;;4.97;2.80;;;;;;;28.51;27.77;101156.53;4951274;28;20056;-72
2023/06/07 10:26:26;;;;;;;3.67;2.78;;;;;;;28.71;27.87;101151.28;4963574;28;20087;-73
2023/06/07 10:29:00;;;;;;;4.80;2.42;;;;;;;28.85;28.22;101156.78;4971335;28;20116;-73
2023/06/07 10:31:34;;;;;;;4.25;2.95;;;;;;;28.97;27.93;101163.38;4951205;28;20709;-74
2023/06/07 10:38:32;;;;;;;8.10;3.63;;;;;;;29.36;26.51;101151.94;4984238;28;20437;-75
2023/06/07 10:41:04;;;;;;;12.10;3.75;;;;;;;29.26;26.67;101151.44;4970044;28;20138;-73
2023/06/07 10:43:33;;;;;;;4.90;3.08;;;;;;;29.20;26.25;101147.66;4940117;28;20074;-73
2023/06/07 10:46:24;;;;;;;6.95;3.13;;;;;;;29.20;26.52;101141.41;4982519;28;20046;-73
2023/06/07 10:48:57;;;;;;;6.63;2.97;;;;;;;29.30;26.73;101144.59;4949268;28;20152;-73
2023/06/07 10:51:55;;;;;;;4.65;3.03;;;;;;;29.45;26.38;101145.31;4961640;28;20585;-72
2023/06/07 10:54:30;;;;;;;7.93;3.22;;;;;;;29.61;26.28;101146.84;4993707;28;20096;-74
2023/06/07 10:57:00;;;;;;;4.53;3.00;;;;;;;29.80;26.29;101147.13;4957070;28;20093;-73
2023/06/07 10:59:30;;;;;;;5.63;2.75;;;;;;;29.88;25.92;101146.94;4968157;28;20165;-73
2023/06/07 11:02:22;;;;;;;5.82;2.95;;;;;;;29.87;25.65;101148.00;4995917;28;20128;-72
2023/06/07 11:04:57;;;;;;;6.55;2.83;;;;;;;29.92;25.60;101142.78;4957664;28;20050;-74
2023/06/07 11:07:35;;;;;;;6.15;3.28;;;;;;;30.04;25.88;101145.75;4997826;28;20057;-75
2023/06/07 11:10:03;;;;;;;5.10;3.05;;;;;;;30.15;25.67;101139.72;4973170;28;20120;-74
2023/06/07 11:12:46;;;;;;;8.57;2.75;;;;;;;30.24;25.54;101141.19;4962605;28;20512;-74
2023/06/07 11:15:16;;;;;;;9.20;2.58;;;;;;;30.33;25.39;101129.09;4969621;28;20038;-74
2023/06/07 11:17:52;;;;;;;7.63;3.58;;;;;;;30.46;25.04;101125.53;4978797;28;20053;-74
2023/06/07 11:20:38;;;;;;;8.48;3.30;;;;;;;30.50;24.49;101126.78;4999532;28;20116;-75
2023/06/07 11:24:01;;;;;;;7.00;3.05;;;;;;;30.60;24.90;101137.25;4974391;28;20341;-73
2023/06/07 11:26:36;;;;;;;8.10;3.33;;;;;;;30.72;25.01;101133.72;4966573;28;20517;-75
2023/06/07 11:29:10;;;;;;;5.63;3.05;;;;;;;30.75;24.65;101135.97;4966738;28;20060;-74
2023/06/07 11:31:38;;;;;;;6.55;3.00;;;;;;;30.67;24.96;101136.19;4978079;28;20054;-73
2023/06/07 11:34:05;;;;;;;12.45;3.67;;;;;;;30.69;24.63;101131.38;4964746;28;20102;-75
2023/06/07 11:36:34;;;;;;;4.00;2.80;;;;;;;30.67;24.54;101136.19;4968347;28;20149;-74
2023/06/07 11:39:08;;;;;;;4.53;2.88;;;;;;;30.61;24.33;101131.59;4987738;28;20157;-73
2023/06/07 11:41:35;;;;;;;5.13;2.67;;;;;;;30.68;24.30;101140.56;4964748;28;20116;-73
2023/06/07 11:44:04;;;;;;;4.20;3.15;;;;;;;30.86;24.43;101137.25;4967379;28;20068;-73
2023/06/07 11:46:35;;;;;;;7.57;2.80;;;;;;;31.11;23.95;101134.66;4935748;28;20141;-72
2023/06/07 11:49:05;;;;;;;6.13;2.95;;;;;;;31.30;23.46;101135.72;4990595;28;20078;-74
2023/06/07 11:51:34;;;;;;;9.13;3.50;;;;;;;31.23;23.45;101138.41;4968312;28;20804;-74